createdAt,value
2019-02-11T00:00:34.515Z,0.80
2019-02-11T00:03:03.079Z,0.70
2019-02-11T00:05:31.886Z,0.70
2019-02-11T00:08:00.458Z,0.80
2019-02-11T00:10:29.082Z,0.80
2019-02-11T00:12:57.652Z,0.80
2019-02-11T00:15:26.171Z,0.90
2019-02-11T00:17:54.821Z,1.00
2019-02-11T00:20:23.366Z,0.80
2019-02-11T00:22:52.131Z,0.93
2019-02-11T00:25:20.541Z,0.90
2019-02-11T00:27:49.028Z,0.90
2019-02-11T00:30:17.612Z,1.00
2019-02-11T00:32:46.211Z,0.80
2019-02-11T00:35:14.891Z,0.83
2019-02-11T00:37:43.432Z,1.33
2019-02-11T00:40:11.964Z,0.90
2019-02-11T00:42:40.536Z,0.80
2019-02-11T00:45:09.925Z,1.03
2019-02-11T00:47:38.576Z,0.70
2019-02-11T00:50:10.479Z,0.93
2019-02-11T00:52:39.134Z,0.80
2019-02-11T00:55:07.718Z,0.90
2019-02-11T00:57:36.127Z,1.07
2019-02-11T01:00:07.079Z,0.97
2019-02-11T01:02:35.651Z,1.03
2019-02-11T01:05:05.997Z,0.90
2019-02-11T01:07:34.560Z,0.90
2019-02-11T01:10:03.162Z,0.60
2019-02-11T01:12:31.727Z,0.90
2019-02-11T01:15:00.308Z,0.80
2019-02-11T01:17:29.100Z,1.00
2019-02-11T01:19:57.626Z,0.70
2019-02-11T01:22:38.422Z,0.90
2019-02-11T01:25:08.713Z,0.97
2019-02-11T01:27:37.586Z,1.27
2019-02-11T01:30:11.609Z,1.10
2019-02-11T01:32:40.165Z,0.90
2019-02-11T01:35:08.790Z,1.10
2019-02-11T01:37:37.375Z,0.90
2019-02-11T01:40:09.508Z,1.07
2019-02-11T01:42:38.149Z,1.07
2019-02-11T01:45:09.986Z,1.30
2019-02-11T01:47:38.608Z,1.30
2019-02-11T01:50:10.554Z,1.20
2019-02-11T01:52:39.229Z,1.40
2019-02-11T01:55:07.888Z,1.27
2019-02-11T01:57:36.408Z,1.13
2019-02-11T02:00:07.637Z,1.10
2019-02-11T02:02:35.968Z,1.33
2019-02-11T02:05:05.908Z,1.50
2019-02-11T02:07:34.405Z,1.10
2019-02-11T02:10:05.431Z,1.30
2019-02-11T02:12:34.105Z,1.47
2019-02-11T02:15:02.669Z,1.20
2019-02-11T02:17:31.304Z,1.50
2019-02-11T02:19:59.996Z,1.60
2019-02-11T02:22:28.620Z,1.50
2019-02-11T02:24:57.293Z,1.30
2019-02-11T02:27:25.896Z,1.50
2019-02-11T02:29:54.650Z,1.50
2019-02-11T02:32:23.336Z,1.70
2019-02-11T02:34:51.971Z,1.53
2019-02-11T02:37:20.466Z,1.80
2019-02-11T02:39:49.181Z,1.23
2019-02-11T02:42:17.803Z,1.30
2019-02-11T02:44:46.441Z,1.80
2019-02-11T02:47:15.011Z,1.70
2019-02-11T02:49:43.627Z,1.27
2019-02-11T02:52:12.292Z,1.70
2019-02-11T02:54:40.846Z,2.00
2019-02-11T02:57:09.470Z,1.70
2019-02-11T02:59:38.182Z,1.90
2019-02-11T03:02:06.794Z,2.03
2019-02-11T03:04:35.774Z,1.63
2019-02-11T03:07:04.430Z,2.20
2019-02-11T03:09:34.197Z,1.90
2019-02-11T03:12:02.613Z,1.90
2019-02-11T03:14:31.331Z,1.70
2019-02-11T03:17:00.020Z,1.90
2019-02-11T03:19:28.662Z,2.00
2019-02-11T03:21:57.385Z,2.07
2019-02-11T03:24:25.944Z,2.47
2019-02-11T03:26:54.331Z,1.90
2019-02-11T03:29:22.745Z,1.87
2019-02-11T03:31:51.426Z,2.00
2019-02-11T03:34:20.416Z,2.10
2019-02-11T03:36:49.307Z,2.17
2019-02-11T03:39:18.467Z,1.90
2019-02-11T03:41:47.102Z,1.93
2019-02-11T03:44:15.855Z,2.33
2019-02-11T03:46:44.771Z,2.17
2019-02-11T03:49:13.454Z,1.70
2019-02-11T03:51:42.140Z,2.00
2019-02-11T03:54:10.872Z,2.17
2019-02-11T03:56:39.434Z,1.80
2019-02-11T03:59:07.848Z,2.23
2019-02-11T04:01:36.439Z,2.23
2019-02-11T04:04:05.144Z,1.83
2019-02-11T04:06:33.674Z,2.00
2019-02-11T04:09:02.464Z,2.10
2019-02-11T04:11:31.028Z,2.37
2019-02-11T04:13:59.764Z,2.23
2019-02-11T04:16:28.468Z,1.93
2019-02-11T04:18:57.076Z,1.90
2019-02-11T04:21:25.944Z,2.13
2019-02-11T04:23:54.322Z,2.03
2019-02-11T04:26:22.821Z,2.13
2019-02-11T04:28:51.735Z,2.00
2019-02-11T04:31:20.367Z,1.90
2019-02-11T04:33:49.234Z,2.00
2019-02-11T04:36:17.943Z,2.00
2019-02-11T04:38:46.588Z,1.90
2019-02-11T04:41:17.913Z,2.10
2019-02-11T04:43:46.648Z,2.23
2019-02-11T04:46:15.453Z,2.20
2019-02-11T04:48:44.209Z,2.30
2019-02-11T04:51:12.788Z,2.27
2019-02-11T04:53:41.715Z,2.77
2019-02-11T04:56:10.369Z,2.63
2019-02-11T04:58:39.212Z,2.33
2019-02-11T05:01:08.099Z,3.20
2019-02-11T05:03:36.787Z,2.63
2019-02-11T05:06:05.879Z,3.00
2019-02-11T05:08:34.445Z,2.77
2019-02-11T05:11:03.275Z,3.00
2019-02-11T05:13:32.093Z,2.20
2019-02-11T05:16:00.912Z,2.97
2019-02-11T05:18:29.620Z,2.37
2019-02-11T05:20:58.500Z,2.23
2019-02-11T05:23:27.230Z,2.90
2019-02-11T05:25:56.020Z,2.90
2019-02-11T05:28:24.854Z,2.60
2019-02-11T05:30:53.742Z,2.97
2019-02-11T05:33:22.537Z,2.63
2019-02-11T05:35:51.190Z,2.70
2019-02-11T05:38:20.012Z,2.50
2019-02-11T05:40:48.795Z,2.40
2019-02-11T05:43:17.607Z,2.00
2019-02-11T05:45:46.474Z,2.17
2019-02-11T05:48:16.967Z,2.13
2019-02-11T05:50:45.856Z,2.40
2019-02-11T05:53:14.543Z,2.33
2019-02-11T05:55:43.627Z,2.53
2019-02-11T05:58:12.256Z,1.90
2019-02-11T06:00:41.124Z,2.20
2019-02-11T06:03:09.911Z,2.50
2019-02-11T06:05:38.732Z,2.60
2019-02-11T06:08:07.566Z,2.20
2019-02-11T06:10:36.347Z,2.93
2019-02-11T06:13:05.117Z,3.33
2019-02-11T06:15:33.944Z,2.53
2019-02-11T06:18:02.731Z,3.80
2019-02-11T06:20:31.526Z,4.30
2019-02-11T06:23:00.301Z,3.00
2019-02-11T06:25:29.265Z,2.80
2019-02-11T06:27:57.976Z,3.10
2019-02-11T06:30:26.664Z,2.63
2019-02-11T06:32:55.526Z,2.87
2019-02-11T06:35:24.335Z,2.47
2019-02-11T06:37:53.087Z,3.13
2019-02-11T06:40:21.922Z,2.20
2019-02-11T06:42:50.697Z,2.60
2019-02-11T06:45:21.122Z,2.90
2019-02-11T06:47:49.929Z,2.23
2019-02-11T06:50:18.312Z,3.00
2019-02-11T06:52:47.144Z,3.20
2019-02-11T06:55:15.950Z,2.27
2019-02-11T06:57:44.590Z,2.33
2019-02-11T07:00:15.003Z,2.40
2019-02-11T07:02:43.793Z,2.20
2019-02-11T07:05:12.298Z,3.03
2019-02-11T07:07:41.023Z,2.90
2019-02-11T07:10:12.835Z,2.97
2019-02-11T07:12:42.344Z,3.00
2019-02-11T07:15:21.296Z,2.47
2019-02-11T07:17:43.899Z,2.53
2019-02-11T07:20:12.775Z,2.53
2019-02-11T07:22:41.742Z,2.10
2019-02-11T07:25:10.527Z,2.17
2019-02-11T07:27:39.314Z,2.43
2019-02-11T07:30:10.805Z,1.90
2019-02-11T07:32:39.694Z,2.23
2019-02-11T07:35:08.587Z,2.57
2019-02-11T07:37:37.072Z,2.13
2019-02-11T07:40:12.488Z,1.97
2019-02-11T07:42:43.024Z,2.20
2019-02-11T07:45:29.833Z,2.00
2019-02-11T07:47:53.252Z,2.27
2019-02-11T07:50:22.123Z,1.93
2019-02-11T07:52:50.570Z,2.30
2019-02-11T07:55:19.075Z,1.47
2019-02-11T07:57:47.494Z,1.60
2019-02-11T08:00:16.001Z,2.00
2019-02-11T08:02:44.482Z,1.97
2019-02-11T08:05:13.603Z,1.93
2019-02-11T08:07:42.298Z,2.33
2019-02-11T08:10:11.256Z,1.90
2019-02-11T08:12:39.652Z,2.10
2019-02-11T08:15:09.678Z,2.53
2019-02-11T08:17:38.294Z,2.20
2019-02-11T08:20:09.168Z,1.93
2019-02-11T08:22:37.753Z,1.60
2019-02-11T08:25:06.592Z,1.80
2019-02-11T08:27:35.454Z,2.10
2019-02-11T08:30:11.326Z,1.83
2019-02-11T08:32:39.962Z,1.47
2019-02-11T08:35:08.898Z,2.63
2019-02-11T08:37:37.353Z,1.50
2019-02-11T08:40:08.246Z,1.50
2019-02-11T08:42:36.678Z,2.00
2019-02-11T08:45:07.646Z,2.10
2019-02-11T08:47:36.126Z,1.97
2019-02-11T08:50:06.957Z,3.07
2019-02-11T08:52:35.442Z,1.87
2019-02-11T08:55:04.130Z,1.77
2019-02-11T08:57:33.678Z,2.00
2019-02-11T09:00:02.084Z,1.90
2019-02-11T09:02:30.766Z,2.00
2019-02-11T09:04:59.632Z,1.80
2019-02-11T09:07:28.081Z,1.97
2019-02-11T09:09:57.113Z,2.07
2019-02-11T09:12:26.147Z,1.90
2019-02-11T09:14:55.161Z,2.30
2019-02-11T09:17:23.842Z,2.13
2019-02-11T09:19:52.266Z,2.20
2019-02-11T09:22:20.702Z,1.57
2019-02-11T09:24:49.227Z,2.00
2019-02-11T09:27:17.934Z,1.83
2019-02-11T09:29:46.518Z,2.00
2019-02-11T09:32:15.132Z,4.00
2019-02-11T09:34:43.688Z,1.90
2019-02-11T09:37:12.370Z,1.63
2019-02-11T09:39:40.886Z,2.20
2019-02-11T09:42:09.274Z,2.03
2019-02-11T09:44:38.230Z,1.93
2019-02-11T09:47:07.297Z,1.90
2019-02-11T09:49:35.890Z,2.70
2019-02-11T09:52:05.280Z,2.23
2019-02-11T09:54:33.775Z,2.03
2019-02-11T09:57:02.213Z,1.50
2019-02-11T09:59:31.484Z,2.17
2019-02-11T10:01:59.888Z,1.90
2019-02-11T10:04:28.459Z,1.83
2019-02-11T10:06:57.100Z,1.60
2019-02-11T10:09:25.552Z,1.80
2019-02-11T10:11:54.090Z,1.70
2019-02-11T10:14:22.864Z,1.70
2019-02-11T10:16:51.261Z,1.67
2019-02-11T10:19:19.850Z,2.03
2019-02-11T10:21:49.577Z,1.70
2019-02-11T10:24:18.059Z,1.60
2019-02-11T10:26:47.214Z,1.57
2019-02-11T10:29:16.182Z,1.53
2019-02-11T10:31:44.604Z,1.50
2019-02-11T10:34:13.166Z,1.50
2019-02-11T10:36:41.780Z,1.20
2019-02-11T10:39:10.694Z,2.20
2019-02-11T10:41:39.665Z,1.63
2019-02-11T10:44:08.470Z,1.63
2019-02-11T10:46:36.919Z,0.97
2019-02-11T10:49:05.574Z,1.37
2019-02-11T10:51:34.591Z,1.77
2019-02-11T10:54:03.457Z,1.90
2019-02-11T10:56:32.306Z,2.37
2019-02-11T10:59:01.222Z,2.20
2019-02-11T11:01:30.136Z,1.90
2019-02-11T11:03:59.270Z,1.50
2019-02-11T11:06:27.666Z,1.60
2019-02-11T11:08:56.468Z,2.30
2019-02-11T11:11:25.490Z,1.83
2019-02-11T11:13:54.276Z,1.53
2019-02-11T11:16:29.410Z,1.57
2019-02-11T11:18:53.646Z,1.87
2019-02-11T11:21:22.531Z,1.40
2019-02-11T11:23:53.124Z,1.70
2019-02-11T11:26:22.114Z,1.50
2019-02-11T11:28:51.151Z,1.67
2019-02-11T11:31:20.252Z,1.60
2019-02-11T11:33:48.845Z,1.70
2019-02-11T11:36:18.077Z,1.70
2019-02-11T11:38:47.762Z,1.53
2019-02-11T11:41:16.538Z,0.97
2019-02-11T11:43:45.499Z,1.90
2019-02-11T11:46:14.496Z,1.60
2019-02-11T11:48:43.308Z,1.43
2019-02-11T11:51:12.395Z,2.00
2019-02-11T11:53:41.354Z,1.93
2019-02-11T11:56:10.286Z,1.63
2019-02-11T11:58:39.210Z,1.23
2019-02-11T12:01:08.270Z,1.50
2019-02-11T12:03:37.116Z,1.47
2019-02-11T12:06:05.599Z,1.40
2019-02-11T12:08:34.342Z,2.07
2019-02-11T12:11:03.315Z,1.30
2019-02-11T12:13:32.138Z,1.50
2019-02-11T12:16:01.142Z,1.67
2019-02-11T12:18:30.022Z,1.37
2019-02-11T12:20:59.007Z,1.73
2019-02-11T12:23:27.463Z,1.50
2019-02-11T12:25:56.517Z,1.40
2019-02-11T12:28:25.524Z,1.20
2019-02-11T12:30:54.630Z,1.27
2019-02-11T12:33:23.347Z,1.83
2019-02-11T12:35:52.398Z,1.40
2019-02-11T12:38:21.394Z,1.63
2019-02-11T12:40:50.443Z,1.30
2019-02-11T12:43:19.432Z,1.97
2019-02-11T12:45:48.441Z,1.40
2019-02-11T12:48:17.425Z,1.70
2019-02-11T12:50:46.380Z,1.30
2019-02-11T12:53:15.426Z,1.67
2019-02-11T12:55:44.477Z,1.30
2019-02-11T12:58:13.294Z,1.50
2019-02-11T13:00:42.302Z,1.40
2019-02-11T13:03:11.377Z,1.90
2019-02-11T13:05:44.982Z,1.90
2019-02-11T13:08:10.394Z,1.57
2019-02-11T13:10:39.486Z,1.60
2019-02-11T13:13:08.604Z,1.80
2019-02-11T13:15:59.030Z,1.47
2019-02-11T13:18:08.625Z,1.80
2019-02-11T13:20:37.404Z,1.67
2019-02-11T13:23:06.331Z,1.90
2019-02-11T13:25:35.413Z,1.53
2019-02-11T13:28:04.432Z,1.47
2019-02-11T13:30:33.506Z,1.30
2019-02-11T13:33:02.478Z,1.30
2019-02-11T13:35:31.475Z,1.50
2019-02-11T13:37:59.941Z,1.50
2019-02-11T13:40:28.740Z,1.20
2019-02-11T13:42:57.275Z,1.40
2019-02-11T13:45:26.295Z,1.37
2019-02-11T13:47:58.187Z,1.30
2019-02-11T13:50:27.100Z,1.20
2019-02-11T13:52:56.089Z,1.63
2019-02-11T13:55:30.031Z,1.30
2019-02-11T13:57:55.875Z,1.67
2019-02-11T14:00:27.609Z,1.20
2019-02-11T14:03:00.523Z,1.33
2019-02-11T14:05:30.754Z,1.20
2019-02-11T14:08:01.514Z,1.17
2019-02-11T14:10:30.879Z,0.90
2019-02-11T14:12:59.995Z,1.10
2019-02-11T14:15:29.128Z,1.20
2019-02-11T14:18:11.675Z,0.80
2019-02-11T14:20:36.582Z,1.13
2019-02-11T14:23:06.041Z,1.20
2019-02-11T14:25:43.878Z,1.40
2019-02-11T14:28:05.519Z,1.50
2019-02-11T14:30:33.968Z,0.90
2019-02-11T14:33:02.578Z,1.30
2019-02-11T14:35:31.040Z,1.00
2019-02-11T14:38:02.363Z,1.43
2019-02-11T14:40:30.310Z,1.20
2019-02-11T14:42:58.817Z,1.27
2019-02-11T14:45:27.337Z,1.30
2019-02-11T14:47:56.362Z,1.30
2019-02-11T14:50:24.760Z,1.20
2019-02-11T14:52:53.592Z,1.10
2019-02-11T14:55:22.070Z,1.50
2019-02-11T14:57:51.068Z,0.90
2019-02-11T15:00:21.452Z,1.27
2019-02-11T15:02:50.001Z,1.87
2019-02-11T15:05:19.436Z,1.60
2019-02-11T15:07:48.600Z,1.40
2019-02-11T15:10:19.546Z,1.67
2019-02-11T15:12:48.360Z,1.30
2019-02-11T15:15:16.764Z,1.80
2019-02-11T15:17:46.788Z,1.70
2019-02-11T15:20:16.944Z,1.90
2019-02-11T15:22:45.372Z,1.27
2019-02-11T15:25:18.780Z,1.30
2019-02-11T15:27:47.282Z,1.60
2019-02-11T15:30:18.118Z,1.50
2019-02-11T15:32:47.130Z,1.77
2019-02-11T15:35:15.705Z,1.33
2019-02-11T15:37:44.105Z,1.80
2019-02-11T15:40:18.679Z,1.67
2019-02-11T15:42:47.742Z,1.60
2019-02-11T15:45:16.197Z,1.43
2019-02-11T15:47:45.545Z,1.50
2019-02-11T15:50:16.635Z,1.73
2019-02-11T15:52:45.085Z,1.57
2019-02-11T15:55:16.281Z,1.53
2019-02-11T15:57:44.761Z,1.73
2019-02-11T16:00:19.800Z,1.33
2019-02-11T16:02:48.426Z,1.97
2019-02-11T16:05:16.992Z,1.40
2019-02-11T16:07:46.240Z,1.37
2019-02-11T16:10:20.733Z,1.87
2019-02-11T16:12:49.862Z,1.80
2019-02-11T16:15:19.375Z,1.60
2019-02-11T16:17:48.074Z,1.70
2019-02-11T16:20:16.829Z,1.63
2019-02-11T16:22:45.310Z,2.20
2019-02-11T16:25:15.430Z,1.93
2019-02-11T16:27:44.037Z,1.60
2019-02-11T16:30:14.627Z,1.87
2019-02-11T16:32:43.699Z,2.03
2019-02-11T16:35:13.940Z,2.10
2019-02-11T16:37:43.033Z,1.77
2019-02-11T16:40:14.262Z,1.60
2019-02-11T16:42:43.198Z,1.63
2019-02-11T16:45:11.890Z,1.70
2019-02-11T16:47:40.322Z,1.60
2019-02-11T16:50:11.286Z,1.57
2019-02-11T16:52:39.679Z,1.80
2019-02-11T16:55:09.968Z,1.60
2019-02-11T16:57:38.492Z,2.10
2019-02-11T17:00:19.681Z,1.77
2019-02-11T17:02:48.305Z,2.60
2019-02-11T17:05:17.505Z,2.17
2019-02-11T17:07:46.171Z,2.30
2019-02-11T17:10:15.483Z,2.57
2019-02-11T17:12:43.954Z,2.40
2019-02-11T17:15:20.800Z,2.57
2019-02-11T17:17:49.463Z,2.20
2019-02-11T17:20:20.113Z,2.50
2019-02-11T17:22:49.319Z,2.97
2019-02-11T17:25:17.917Z,2.20
2019-02-11T17:27:46.949Z,2.47
2019-02-11T17:30:21.581Z,2.13
2019-02-11T17:32:50.413Z,2.47
2019-02-11T17:35:19.502Z,2.27
2019-02-11T17:37:48.042Z,2.40
2019-02-11T17:40:17.105Z,2.40
2019-02-11T17:42:45.644Z,2.30
2019-02-11T17:45:26.692Z,2.20
2019-02-11T17:47:55.244Z,2.60
2019-02-11T17:50:23.755Z,2.90
2019-02-11T17:52:55.674Z,2.70
2019-02-11T17:55:24.824Z,2.30
2019-02-11T17:57:53.716Z,2.37
2019-02-11T18:00:30.381Z,2.13
2019-02-11T18:03:01.091Z,1.80
2019-02-11T18:05:30.897Z,2.30
2019-02-11T18:07:59.277Z,3.00
2019-02-11T18:10:28.250Z,2.80
2019-02-11T18:12:57.038Z,3.03
2019-02-11T18:15:26.043Z,2.13
2019-02-11T18:17:54.494Z,2.00
2019-02-11T18:20:24.722Z,2.30
2019-02-11T18:22:53.370Z,2.27
2019-02-11T18:25:22.278Z,2.27
2019-02-11T18:27:51.371Z,2.70
2019-02-11T18:30:20.111Z,2.20
2019-02-11T18:32:49.277Z,2.33
2019-02-11T18:35:20.321Z,2.27
2019-02-11T18:37:49.342Z,2.50
2019-02-11T18:40:18.423Z,2.33
2019-02-11T18:42:47.325Z,2.40
2019-02-11T18:45:17.214Z,2.57
2019-02-11T18:47:46.297Z,2.53
2019-02-11T18:50:16.498Z,2.87
2019-02-11T18:52:45.336Z,3.07
2019-02-11T18:55:20.129Z,2.70
2019-02-11T18:57:48.526Z,2.40
2019-02-11T19:00:21.340Z,2.93
2019-02-11T19:02:50.221Z,2.30
2019-02-11T19:05:19.372Z,2.47
2019-02-11T19:07:48.214Z,3.10
2019-02-11T19:10:20.524Z,3.00
2019-02-11T19:12:49.443Z,3.47
2019-02-11T19:15:19.447Z,3.60
2019-02-11T19:17:48.155Z,3.40
2019-02-11T19:20:17.836Z,3.10
2019-02-11T19:22:46.978Z,3.30
2019-02-11T19:25:15.613Z,3.17
2019-02-11T19:27:44.109Z,2.60
2019-02-11T19:30:16.541Z,2.73
2019-02-11T19:32:45.562Z,2.30
2019-02-11T19:35:14.423Z,2.70
2019-02-11T19:37:43.403Z,2.37
2019-02-11T19:40:14.279Z,2.83
2019-02-11T19:42:42.824Z,2.73
2019-02-11T19:45:13.821Z,2.30
2019-02-11T19:47:44.386Z,2.47
2019-02-11T19:50:15.227Z,3.13
2019-02-11T19:52:46.670Z,2.33
2019-02-11T19:55:17.585Z,3.07
2019-02-11T19:57:46.258Z,2.63
2019-02-11T20:00:18.777Z,2.20
2019-02-11T20:03:08.155Z,2.60
2019-02-11T20:05:36.937Z,2.63
2019-02-11T20:08:05.713Z,2.40
2019-02-11T20:10:34.827Z,2.83
2019-02-11T20:13:03.976Z,3.07
2019-02-11T20:15:37.897Z,2.23
2019-02-11T20:18:07.115Z,2.50
2019-02-11T20:20:36.965Z,2.50
2019-02-11T20:23:05.958Z,2.43
2019-02-11T20:25:34.951Z,2.43
2019-02-11T20:28:03.707Z,2.90
2019-02-11T20:30:32.971Z,2.03
2019-02-11T20:33:01.648Z,2.50
2019-02-11T20:35:30.649Z,2.23
2019-02-11T20:37:59.605Z,2.30
2019-02-11T20:40:29.995Z,2.53
2019-02-11T20:42:58.630Z,2.33
2019-02-11T20:45:28.727Z,2.60
2019-02-11T20:47:57.291Z,2.50
2019-02-11T20:50:26.073Z,2.43
2019-02-11T20:52:54.973Z,2.33
2019-02-11T20:55:23.823Z,2.63
2019-02-11T20:57:58.787Z,3.00
2019-02-11T21:00:27.751Z,2.30
2019-02-11T21:02:56.294Z,3.23
2019-02-11T21:05:25.003Z,2.63
2019-02-11T21:07:53.989Z,3.87
2019-02-11T21:10:24.340Z,2.93
2019-02-11T21:12:52.859Z,3.17
2019-02-11T21:15:21.334Z,3.07
2019-02-11T21:17:50.938Z,3.07
2019-02-11T21:20:31.636Z,2.73
2019-02-11T21:23:00.288Z,3.03
2019-02-11T21:25:29.181Z,2.93
2019-02-11T21:27:58.043Z,3.40
2019-02-11T21:30:27.011Z,4.03
2019-02-11T21:32:55.829Z,3.07
2019-02-11T21:35:24.914Z,4.03
2019-02-11T21:37:53.759Z,6.33
2019-02-11T21:40:22.611Z,9.40
2019-02-11T21:42:51.515Z,13.53
2019-02-11T21:45:20.606Z,8.87
2019-02-11T21:47:49.711Z,5.27
2019-02-11T21:50:26.357Z,6.37
2019-02-11T21:52:50.759Z,4.27
2019-02-11T21:55:25.049Z,5.53
2019-02-11T21:57:53.940Z,4.53
2019-02-11T22:00:23.821Z,4.53
2019-02-11T22:02:53.175Z,4.27
2019-02-11T22:05:21.562Z,5.10
2019-02-11T22:07:50.557Z,4.73
2019-02-11T22:10:21.228Z,6.00
2019-02-11T22:12:49.837Z,5.00
2019-02-11T22:15:18.241Z,5.50
2019-02-11T22:17:47.177Z,5.30
2019-02-11T22:20:21.034Z,5.83
2019-02-11T22:22:49.967Z,5.20
2019-02-11T22:25:18.890Z,4.90
2019-02-11T22:27:47.844Z,4.60
2019-02-11T22:30:19.567Z,3.73
2019-02-11T22:32:48.660Z,3.73
2019-02-11T22:35:17.627Z,3.43
2019-02-11T22:37:47.738Z,3.40
2019-02-11T22:40:16.734Z,3.43
2019-02-11T22:42:45.863Z,3.00
2019-02-11T22:45:22.257Z,3.63
2019-02-11T22:47:50.679Z,2.60
2019-02-11T22:50:19.586Z,4.00
2019-02-11T22:52:48.179Z,3.17
2019-02-11T22:55:16.923Z,4.03
2019-02-11T22:57:45.865Z,3.60
2019-02-11T23:00:25.017Z,3.40
2019-02-11T23:02:53.659Z,3.83
2019-02-11T23:05:22.109Z,3.80
2019-02-11T23:07:50.791Z,4.30
2019-02-11T23:10:19.721Z,3.73
2019-02-11T23:12:48.472Z,3.10
2019-02-11T23:15:17.367Z,4.73
2019-02-11T23:17:46.636Z,3.90
2019-02-11T23:20:15.305Z,4.03
2019-02-11T23:22:44.091Z,3.77
2019-02-11T23:25:13.853Z,4.27
2019-02-11T23:27:42.823Z,4.50
2019-02-11T23:30:13.444Z,3.77
2019-02-11T23:32:43.215Z,4.53
2019-02-11T23:35:12.104Z,4.03
2019-02-11T23:37:40.957Z,3.70
2019-02-11T23:40:10.936Z,3.77
2019-02-11T23:42:39.746Z,3.13
2019-02-11T23:45:10.332Z,3.70
2019-02-11T23:47:39.267Z,3.20
2019-02-11T23:50:10.157Z,3.77
2019-02-11T23:52:39.100Z,3.10
2019-02-11T23:55:09.355Z,2.83
2019-02-11T23:57:37.890Z,2.73
